Pagrindinis puslapis
METAR-TAF:

METAR-TAF

Oro uostai :

Ilam, Iranas

platuma: 33-35-09N, ilguma: 046-24-20E, Aukštis: 1334 m

Dabartinis oras

Ataskaita buvo paskelbta 16 minutes, ne 08:00 UTC
Vėjas 6 kt iš Vakarų/Pietvakarių
Temperatūra 28°C
Drėgmė 22%
Slėgis 1016 hPa
Matomumas 10 km arba daugiau
Mažai debesys ne aukštis 4000 ft

METAR: OICI 240800Z 25006KT 9999 FEW040 28/04 Q1016 A3001

Laikas: 12:46 (08:16 UTC)

Prognozė

Ataskaita buvo paskelbta 2 valandos ir 46 minutes, ne 05:30 UTC
Prognozė galioja nuo 24 metu 06 UTC su 25 metu 12 UTC
Vėjas 7 kt iš Šiaurės Vakarų
Matomumas: 8000 m

TAF: OICI 240530Z 2406/2512 31007KT 8000 NSC

Orai ataskaitas ir orų prognozės (METAR, TAF).

turimą stotys yra geltonos ir raudonos taškus žemėlapyje.

Perkelti pele per norėdami pamatyti stoties vardą.

Tada spustelėkite, norėdami matyti oro stebėjimo ir prognozės.

Norėdami pakeisti žemėlapį: spustelėkite ant žalios mygtukų su juodo kryžiaus žemyn,; žalią mygtuką su brūkšneliu, jei norite nutolinti; arba žalių rodyklių gretimoms žemėlapius.


METAR-TAF: